sensor_id;sensor_type;location;lat;lon;timestamp;P1;durP1;ratioP1;P2;durP2;ratioP2
27907;SDS011;15249;48.092;11.484;2024-02-21T01:22:06;7.700001;;;2.9;;
27907;SDS011;15249;48.092;11.484;2024-02-21T01:23:06;7.700001;;;2.9;;
27907;SDS011;15249;48.092;11.484;2024-02-21T01:24:07;7.700001;;;2.9;;
27907;SDS011;15249;48.092;11.484;2024-02-21T01:25:07;7.700001;;;2.9;;
27907;SDS011;15249;48.092;11.484;2024-02-21T01:26:09;7.700001;;;2.9;;
27907;SDS011;15249;48.092;11.484;2024-02-21T01:27:09;7.700001;;;2.9;;
27907;SDS011;15249;48.092;11.484;2024-02-21T01:28:10;7.700001;;;2.9;;
27907;SDS011;15249;48.092;11.484;2024-02-21T01:29:10;7.700001;;;2.9;;
27907;SDS011;15249;48.092;11.484;2024-02-21T01:30:11;7.700001;;;2.9;;
27907;SDS011;15249;48.092;11.484;2024-02-21T01:31:13;7.700001;;;2.9;;
27907;SDS011;15249;48.092;11.484;2024-02-21T01:32:13;7.700001;;;2.9;;
27907;SDS011;15249;48.092;11.484;2024-02-21T01:33:13;4.05;;;2.6;;
27907;SDS011;15249;48.092;11.484;2024-02-21T01:34:14;4.05;;;2.6;;
27907;SDS011;15249;48.092;11.484;2024-02-21T01:35:14;4.05;;;2.6;;
27907;SDS011;15249;48.092;11.484;2024-02-21T01:36:15;4.05;;;2.6;;
27907;SDS011;15249;48.092;11.484;2024-02-21T01:37:15;4.05;;;2.6;;
27907;SDS011;15249;48.092;11.484;2024-02-21T01:38:16;4.05;;;2.6;;
27907;SDS011;15249;48.092;11.484;2024-02-21T01:39:16;4.05;;;2.6;;
27907;SDS011;15249;48.092;11.484;2024-02-21T01:40:17;4.05;;;2.6;;
27907;SDS011;15249;48.092;11.484;2024-02-21T01:41:17;4.05;;;2.6;;
27907;SDS011;15249;48.092;11.484;2024-02-21T01:42:18;4.05;;;2.6;;
27907;SDS011;15249;48.092;11.484;2024-02-21T01:43:19;4.05;;;2.6;;
27907;SDS011;15249;48.092;11.484;2024-02-21T01:44:20;4.05;;;2.6;;
27907;SDS011;15249;48.092;11.484;2024-02-21T01:45:21;4.05;;;2.6;;
27907;SDS011;15249;48.092;11.484;2024-02-21T01:46:21;4.05;;;2.6;;
27907;SDS011;15249;48.092;11.484;2024-02-21T01:47:22;4.05;;;2.6;;
27907;SDS011;15249;48.092;11.484;2024-02-21T01:48:23;4.05;;;2.6;;
27907;SDS011;15249;48.092;11.484;2024-02-21T01:49:25;4.05;;;2.6;;
27907;SDS011;15249;48.092;11.484;2024-02-21T01:50:26;4.05;;;2.6;;
27907;SDS011;15249;48.092;11.484;2024-02-21T01:51:29;4.05;;;2.6;;
27907;SDS011;15249;48.092;11.484;2024-02-21T01:52:30;4.05;;;2.6;;
27907;SDS011;15249;48.092;11.484;2024-02-21T01:53:32;4.05;;;2.6;;
27907;SDS011;15249;48.092;11.484;2024-02-21T01:54:35;4.05;;;2.6;;
27907;SDS011;15249;48.092;11.484;2024-02-21T01:55:36;4.05;;;2.6;;
27907;SDS011;15249;48.092;11.484;2024-02-21T01:56:37;4.05;;;2.6;;
27907;SDS011;15249;48.092;11.484;2024-02-21T01:57:38;4.05;;;2.6;;
27907;SDS011;15249;48.092;11.484;2024-02-21T01:58:39;4.05;;;2.6;;
27907;SDS011;15249;48.092;11.484;2024-02-21T01:59:42;4.05;;;2.6;;
27907;SDS011;15249;48.092;11.484;2024-02-21T02:00:43;4.05;;;2.6;;
27907;SDS011;15249;48.092;11.484;2024-02-21T02:01:44;4.05;;;2.6;;
27907;SDS011;15249;48.092;11.484;2024-02-21T02:02:46;4.05;;;2.6;;
27907;SDS011;15249;48.092;11.484;2024-02-21T02:03:47;4.05;;;2.6;;
27907;SDS011;15249;48.092;11.484;2024-02-21T02:04:48;4.05;;;2.6;;
27907;SDS011;15249;48.092;11.484;2024-02-21T02:05:49;4.05;;;2.6;;
27907;SDS011;15249;48.092;11.484;2024-02-21T02:06:50;4.05;;;2.6;;
27907;SDS011;15249;48.092;11.484;2024-02-21T02:07:51;4.05;;;2.6;;
27907;SDS011;15249;48.092;11.484;2024-02-21T02:08:52;4.05;;;2.6;;
27907;SDS011;15249;48.092;11.484;2024-02-21T02:09:53;4.05;;;2.6;;
27907;SDS011;15249;48.092;11.484;2024-02-21T02:10:53;4.05;;;2.6;;
27907;SDS011;15249;48.092;11.484;2024-02-21T02:11:54;4.05;;;2.6;;
27907;SDS011;15249;48.092;11.484;2024-02-21T02:12:55;4.05;;;2.6;;
27907;SDS011;15249;48.092;11.484;2024-02-21T02:13:55;4.05;;;2.6;;
27907;SDS011;15249;48.092;11.484;2024-02-21T02:14:57;4.05;;;2.6;;
27907;SDS011;15249;48.092;11.484;2024-02-21T02:15:58;4.05;;;2.6;;
27907;SDS011;15249;48.092;11.484;2024-02-21T02:16:59;4.05;;;2.6;;
27907;SDS011;15249;48.092;11.484;2024-02-21T03:00:02;2.35;;;1.9;;
27907;SDS011;15249;48.092;11.484;2024-02-21T03:01:04;2.35;;;1.9;;
27907;SDS011;15249;48.092;11.484;2024-02-21T03:02:07;2.35;;;1.9;;
27907;SDS011;15249;48.092;11.484;2024-02-21T03:03:08;2.35;;;1.9;;
27907;SDS011;15249;48.092;11.484;2024-02-21T03:04:09;2.35;;;1.9;;
27907;SDS011;15249;48.092;11.484;2024-02-21T03:05:11;2.35;;;1.9;;
27907;SDS011;15249;48.092;11.484;2024-02-21T03:06:13;2.35;;;1.9;;
27907;SDS011;15249;48.092;11.484;2024-02-21T03:07:14;2.35;;;1.9;;
27907;SDS011;15249;48.092;11.484;2024-02-21T03:08:15;2.35;;;1.9;;
27907;SDS011;15249;48.092;11.484;2024-02-21T03:09:15;2.35;;;1.9;;
27907;SDS011;15249;48.092;11.484;2024-02-21T03:10:16;2.35;;;1.9;;
27907;SDS011;15249;48.092;11.484;2024-02-21T03:11:17;2.35;;;1.9;;
27907;SDS011;15249;48.092;11.484;2024-02-21T03:12:24;2.35;;;1.9;;
27907;SDS011;15249;48.092;11.484;2024-02-21T03:13:24;2.35;;;1.9;;
27907;SDS011;15249;48.092;11.484;2024-02-21T03:14:25;2.35;;;1.9;;
27907;SDS011;15249;48.092;11.484;2024-02-21T03:15:25;2.35;;;1.9;;
27907;SDS011;15249;48.092;11.484;2024-02-21T03:16:26;2.35;;;1.9;;
27907;SDS011;15249;48.092;11.484;2024-02-21T03:17:27;2.35;;;1.9;;
27907;SDS011;15249;48.092;11.484;2024-02-21T03:18:27;2.35;;;1.9;;
27907;SDS011;15249;48.092;11.484;2024-02-21T03:19:28;2.35;;;1.9;;
27907;SDS011;15249;48.092;11.484;2024-02-21T03:20:29;2.35;;;1.9;;
27907;SDS011;15249;48.092;11.484;2024-02-21T03:21:29;2.35;;;1.9;;
27907;SDS011;15249;48.092;11.484;2024-02-21T03:22:29;2.35;;;1.9;;
27907;SDS011;15249;48.092;11.484;2024-02-21T03:23:30;2.35;;;1.9;;
27907;SDS011;15249;48.092;11.484;2024-02-21T03:24:31;2.35;;;1.9;;
27907;SDS011;15249;48.092;11.484;2024-02-21T03:25:32;2.35;;;1.9;;
27907;SDS011;15249;48.092;11.484;2024-02-21T03:26:32;2.35;;;1.9;;
27907;SDS011;15249;48.092;11.484;2024-02-21T03:27:33;2.35;;;1.9;;
27907;SDS011;15249;48.092;11.484;2024-02-21T03:28:33;2.35;;;1.9;;
27907;SDS011;15249;48.092;11.484;2024-02-21T03:29:34;2.35;;;1.9;;
27907;SDS011;15249;48.092;11.484;2024-02-21T03:30:34;2.35;;;1.9;;
27907;SDS011;15249;48.092;11.484;2024-02-21T03:31:35;2.35;;;1.9;;
27907;SDS011;15249;48.092;11.484;2024-02-21T03:32:35;2.35;;;1.9;;
27907;SDS011;15249;48.092;11.484;2024-02-21T03:33:36;2.35;;;1.9;;
27907;SDS011;15249;48.092;11.484;2024-02-21T03:34:36;2.35;;;1.9;;
27907;SDS011;15249;48.092;11.484;2024-02-21T03:35:37;2.35;;;1.9;;
27907;SDS011;15249;48.092;11.484;2024-02-21T03:36:38;2.35;;;1.9;;
27907;SDS011;15249;48.092;11.484;2024-02-21T03:37:39;2.35;;;1.9;;
27907;SDS011;15249;48.092;11.484;2024-02-21T03:38:40;2.35;;;1.9;;
27907;SDS011;15249;48.092;11.484;2024-02-21T03:39:40;2.35;;;1.9;;
27907;SDS011;15249;48.092;11.484;2024-02-21T03:40:41;2.35;;;1.9;;
27907;SDS011;15249;48.092;11.484;2024-02-21T03:41:41;2.35;;;1.9;;
27907;SDS011;15249;48.092;11.484;2024-02-21T03:42:42;2.35;;;1.9;;
27907;SDS011;15249;48.092;11.484;2024-02-21T03:43:43;2.35;;;1.9;;
27907;SDS011;15249;48.092;11.484;2024-02-21T03:53:44;2.65;;;1.85;;
27907;SDS011;15249;48.092;11.484;2024-02-21T03:54:44;2.65;;;1.85;;
27907;SDS011;15249;48.092;11.484;2024-02-21T03:55:45;2.65;;;1.85;;
27907;SDS011;15249;48.092;11.484;2024-02-21T03:56:47;2.65;;;1.85;;
27907;SDS011;15249;48.092;11.484;2024-02-21T03:57:48;2.65;;;1.85;;
27907;SDS011;15249;48.092;11.484;2024-02-21T03:58:48;2.65;;;1.85;;
27907;SDS011;15249;48.092;11.484;2024-02-21T03:59:50;2.65;;;1.85;;
27907;SDS011;15249;48.092;11.484;2024-02-21T04:00:51;2.65;;;1.85;;
27907;SDS011;15249;48.092;11.484;2024-02-21T04:01:52;2.65;;;1.85;;
27907;SDS011;15249;48.092;11.484;2024-02-21T04:02:53;2.65;;;1.85;;
27907;SDS011;15249;48.092;11.484;2024-02-21T04:03:54;2.65;;;1.85;;
27907;SDS011;15249;48.092;11.484;2024-02-21T04:04:54;2.65;;;1.85;;
27907;SDS011;15249;48.092;11.484;2024-02-21T04:05:54;2.65;;;1.85;;
27907;SDS011;15249;48.092;11.484;2024-02-21T04:06:55;2.65;;;1.85;;
27907;SDS011;15249;48.092;11.484;2024-02-21T04:07:55;2.65;;;1.85;;
27907;SDS011;15249;48.092;11.484;2024-02-21T04:08:56;2.65;;;1.85;;
27907;SDS011;15249;48.092;11.484;2024-02-21T04:09:57;2.65;;;1.85;;
27907;SDS011;15249;48.092;11.484;2024-02-21T04:10:57;2.65;;;1.85;;
27907;SDS011;15249;48.092;11.484;2024-02-21T04:11:58;2.65;;;1.85;;
27907;SDS011;15249;48.092;11.484;2024-02-21T04:12:58;2.65;;;1.85;;
27907;SDS011;15249;48.092;11.484;2024-02-21T04:13:59;2.65;;;1.85;;
27907;SDS011;15249;48.092;11.484;2024-02-21T04:14:59;2.65;;;1.6;;
27907;SDS011;15249;48.092;11.484;2024-02-21T04:16:01;2.65;;;1.6;;
27907;SDS011;15249;48.092;11.484;2024-02-21T04:17:01;2.65;;;1.6;;
27907;SDS011;15249;48.092;11.484;2024-02-21T04:18:03;2.65;;;1.6;;
27907;SDS011;15249;48.092;11.484;2024-02-21T04:19:03;2.65;;;1.6;;
27907;SDS011;15249;48.092;11.484;2024-02-21T04:20:05;2.65;;;1.6;;
27907;SDS011;15249;48.092;11.484;2024-02-21T04:21:06;2.65;;;1.6;;
27907;SDS011;15249;48.092;11.484;2024-02-21T04:22:06;2.65;;;1.6;;
27907;SDS011;15249;48.092;11.484;2024-02-21T04:23:07;2.65;;;1.6;;
27907;SDS011;15249;48.092;11.484;2024-02-21T04:24:07;2.65;;;1.6;;
27907;SDS011;15249;48.092;11.484;2024-02-21T04:25:08;2.65;;;1.6;;
27907;SDS011;15249;48.092;11.484;2024-02-21T04:26:09;2.65;;;1.6;;
27907;SDS011;15249;48.092;11.484;2024-02-21T04:27:09;2.65;;;1.6;;
27907;SDS011;15249;48.092;11.484;2024-02-21T04:28:09;2.65;;;1.6;;
27907;SDS011;15249;48.092;11.484;2024-02-21T04:29:10;2.65;;;1.6;;
27907;SDS011;15249;48.092;11.484;2024-02-21T04:30:11;2.65;;;1.6;;
27907;SDS011;15249;48.092;11.484;2024-02-21T04:31:12;2.65;;;1.6;;
27907;SDS011;15249;48.092;11.484;2024-02-21T04:32:12;2.65;;;1.6;;
27907;SDS011;15249;48.092;11.484;2024-02-21T04:33:13;2.65;;;1.6;;
27907;SDS011;15249;48.092;11.484;2024-02-21T04:34:13;2.65;;;1.6;;
27907;SDS011;15249;48.092;11.484;2024-02-21T04:35:14;2.65;;;1.6;;
27907;SDS011;15249;48.092;11.484;2024-02-21T04:36:14;2.65;;;1.6;;
27907;SDS011;15249;48.092;11.484;2024-02-21T04:37:15;2.65;;;1.6;;
27907;SDS011;15249;48.092;11.484;2024-02-21T04:38:16;2.65;;;1.6;;
27907;SDS011;15249;48.092;11.484;2024-02-21T04:39:16;2.65;;;1.6;;
27907;SDS011;15249;48.092;11.484;2024-02-21T04:40:17;2.65;;;1.6;;
27907;SDS011;15249;48.092;11.484;2024-02-21T04:41:17;2.65;;;1.6;;
27907;SDS011;15249;48.092;11.484;2024-02-21T04:42:18;2.65;;;1.6;;
27907;SDS011;15249;48.092;11.484;2024-02-21T04:43:18;2.65;;;1.6;;
27907;SDS011;15249;48.092;11.484;2024-02-21T04:44:22;2.65;;;1.6;;
27907;SDS011;15249;48.092;11.484;2024-02-21T04:45:22;2.65;;;1.6;;
27907;SDS011;15249;48.092;11.484;2024-02-21T04:46:23;2.65;;;1.6;;
27907;SDS011;15249;48.092;11.484;2024-02-21T04:47:23;2.65;;;1.6;;
27907;SDS011;15249;48.092;11.484;2024-02-21T04:48:24;2.65;;;1.6;;
27907;SDS011;15249;48.092;11.484;2024-02-21T04:49:24;2.65;;;1.6;;
27907;SDS011;15249;48.092;11.484;2024-02-21T04:50:25;2.65;;;1.6;;
27907;SDS011;15249;48.092;11.484;2024-02-21T04:51:25;2.65;;;1.6;;
27907;SDS011;15249;48.092;11.484;2024-02-21T04:52:26;2.65;;;1.6;;
27907;SDS011;15249;48.092;11.484;2024-02-21T04:53:26;2.65;;;1.6;;
27907;SDS011;15249;48.092;11.484;2024-02-21T04:54:27;2.65;;;1.6;;
27907;SDS011;15249;48.092;11.484;2024-02-21T04:55:27;2.65;;;1.6;;
27907;SDS011;15249;48.092;11.484;2024-02-21T04:56:28;2.65;;;1.6;;
27907;SDS011;15249;48.092;11.484;2024-02-21T04:57:28;2.65;;;1.6;;
27907;SDS011;15249;48.092;11.484;2024-02-21T04:58:29;2.65;;;1.6;;
27907;SDS011;15249;48.092;11.484;2024-02-21T04:59:29;2.65;;;1.6;;
27907;SDS011;15249;48.092;11.484;2024-02-21T06:46:35;2.3;;;1.8;;
27907;SDS011;15249;48.092;11.484;2024-02-21T06:47:36;2.3;;;1.8;;
27907;SDS011;15249;48.092;11.484;2024-02-21T06:48:37;2.3;;;1.8;;
27907;SDS011;15249;48.092;11.484;2024-02-21T06:49:37;2.3;;;1.8;;
27907;SDS011;15249;48.092;11.484;2024-02-21T06:50:38;2.3;;;1.8;;
27907;SDS011;15249;48.092;11.484;2024-02-21T06:51:38;2.3;;;1.8;;
27907;SDS011;15249;48.092;11.484;2024-02-21T06:52:39;2.3;;;1.8;;
27907;SDS011;15249;48.092;11.484;2024-02-21T06:53:40;2.3;;;1.8;;
27907;SDS011;15249;48.092;11.484;2024-02-21T06:54:40;2.3;;;1.8;;
27907;SDS011;15249;48.092;11.484;2024-02-21T06:55:41;2.3;;;1.8;;
27907;SDS011;15249;48.092;11.484;2024-02-21T06:56:42;2.3;;;1.8;;
27907;SDS011;15249;48.092;11.484;2024-02-21T06:57:42;2.3;;;1.8;;
27907;SDS011;15249;48.092;11.484;2024-02-21T06:58:42;2.3;;;1.8;;
27907;SDS011;15249;48.092;11.484;2024-02-21T06:59:43;2.3;;;1.8;;
27907;SDS011;15249;48.092;11.484;2024-02-21T07:00:44;2.3;;;1.8;;
27907;SDS011;15249;48.092;11.484;2024-02-21T07:01:45;2.3;;;1.8;;
27907;SDS011;15249;48.092;11.484;2024-02-21T07:02:46;2.3;;;1.8;;
27907;SDS011;15249;48.092;11.484;2024-02-21T07:03:48;2.3;;;1.8;;
27907;SDS011;15249;48.092;11.484;2024-02-21T07:04:48;2.3;;;1.8;;
27907;SDS011;15249;48.092;11.484;2024-02-21T07:05:49;2.3;;;1.8;;
27907;SDS011;15249;48.092;11.484;2024-02-21T07:06:49;2.3;;;1.8;;
27907;SDS011;15249;48.092;11.484;2024-02-21T07:07:49;2.3;;;1.8;;
27907;SDS011;15249;48.092;11.484;2024-02-21T07:08:50;2.3;;;1.8;;
27907;SDS011;15249;48.092;11.484;2024-02-21T07:09:51;2.3;;;1.8;;
27907;SDS011;15249;48.092;11.484;2024-02-21T07:10:52;2.3;;;1.8;;
27907;SDS011;15249;48.092;11.484;2024-02-21T07:11:52;2.3;;;1.8;;
27907;SDS011;15249;48.092;11.484;2024-02-21T07:12:53;2.3;;;1.8;;
27907;SDS011;15249;48.092;11.484;2024-02-21T07:13:53;2.3;;;1.8;;
27907;SDS011;15249;48.092;11.484;2024-02-21T07:14:53;2.3;;;1.8;;
27907;SDS011;15249;48.092;11.484;2024-02-21T07:15:54;2.3;;;1.8;;
27907;SDS011;15249;48.092;11.484;2024-02-21T07:16:54;2.3;;;1.8;;
27907;SDS011;15249;48.092;11.484;2024-02-21T07:17:55;2.3;;;1.8;;
27907;SDS011;15249;48.092;11.484;2024-02-21T07:18:55;2.3;;;1.8;;
27907;SDS011;15249;48.092;11.484;2024-02-21T07:19:56;2.3;;;1.8;;
27907;SDS011;15249;48.092;11.484;2024-02-21T07:20:58;2.3;;;1.8;;
27907;SDS011;15249;48.092;11.484;2024-02-21T07:21:58;2.3;;;1.8;;
27907;SDS011;15249;48.092;11.484;2024-02-21T07:22:59;2.3;;;1.8;;
27907;SDS011;15249;48.092;11.484;2024-02-21T07:23:59;2.3;;;1.8;;
27907;SDS011;15249;48.092;11.484;2024-02-21T07:25:00;2.3;;;1.8;;
27907;SDS011;15249;48.092;11.484;2024-02-21T07:26:00;2.3;;;1.8;;
27907;SDS011;15249;48.092;11.484;2024-02-21T07:27:04;2.3;;;1.8;;
27907;SDS011;15249;48.092;11.484;2024-02-21T07:28:05;2.3;;;1.8;;
27907;SDS011;15249;48.092;11.484;2024-02-21T07:29:05;2.3;;;1.8;;
27907;SDS011;15249;48.092;11.484;2024-02-21T07:30:06;2.65;;;1.6;;
27907;SDS011;15249;48.092;11.484;2024-02-21T07:31:07;2.65;;;1.6;;
27907;SDS011;15249;48.092;11.484;2024-02-21T07:32:07;2.65;;;1.6;;
27907;SDS011;15249;48.092;11.484;2024-02-21T07:33:08;2.65;;;1.6;;
27907;SDS011;15249;48.092;11.484;2024-02-21T07:34:08;2.65;;;1.6;;
27907;SDS011;15249;48.092;11.484;2024-02-21T07:35:11;2.65;;;1.6;;
27907;SDS011;15249;48.092;11.484;2024-02-21T07:36:12;2.65;;;1.6;;
27907;SDS011;15249;48.092;11.484;2024-02-21T07:37:12;2.65;;;1.6;;
27907;SDS011;15249;48.092;11.484;2024-02-21T07:38:14;2.65;;;1.6;;
27907;SDS011;15249;48.092;11.484;2024-02-21T07:39:15;2.65;;;1.6;;
27907;SDS011;15249;48.092;11.484;2024-02-21T07:40:16;2.65;;;1.6;;
27907;SDS011;15249;48.092;11.484;2024-02-21T07:41:16;2.65;;;1.6;;
27907;SDS011;15249;48.092;11.484;2024-02-21T07:42:17;2.65;;;1.6;;
27907;SDS011;15249;48.092;11.484;2024-02-21T07:43:17;2.65;;;1.6;;
27907;SDS011;15249;48.092;11.484;2024-02-21T07:44:18;2.65;;;1.6;;
27907;SDS011;15249;48.092;11.484;2024-02-21T07:45:18;2.65;;;1.6;;
27907;SDS011;15249;48.092;11.484;2024-02-21T07:46:19;2.65;;;1.6;;
27907;SDS011;15249;48.092;11.484;2024-02-21T07:47:20;2.65;;;1.6;;
27907;SDS011;15249;48.092;11.484;2024-02-21T07:48:20;2.65;;;1.6;;
27907;SDS011;15249;48.092;11.484;2024-02-21T07:49:21;2.65;;;1.6;;
27907;SDS011;15249;48.092;11.484;2024-02-21T07:50:22;2.65;;;1.6;;
27907;SDS011;15249;48.092;11.484;2024-02-21T07:51:22;2.65;;;1.6;;
27907;SDS011;15249;48.092;11.484;2024-02-21T07:52:27;2.65;;;1.6;;
27907;SDS011;15249;48.092;11.484;2024-02-21T07:53:28;2.65;;;1.6;;
27907;SDS011;15249;48.092;11.484;2024-02-21T07:54:28;2.65;;;1.6;;
27907;SDS011;15249;48.092;11.484;2024-02-21T07:55:29;2.65;;;1.6;;
27907;SDS011;15249;48.092;11.484;2024-02-21T07:56:29;2.65;;;1.6;;
27907;SDS011;15249;48.092;11.484;2024-02-21T07:57:30;2.65;;;1.6;;
27907;SDS011;15249;48.092;11.484;2024-02-21T07:58:30;2.65;;;1.6;;
27907;SDS011;15249;48.092;11.484;2024-02-21T07:59:31;2.65;;;1.6;;
27907;SDS011;15249;48.092;11.484;2024-02-21T08:00:31;2.65;;;1.6;;
27907;SDS011;15249;48.092;11.484;2024-02-21T08:01:32;2.65;;;1.6;;
27907;SDS011;15249;48.092;11.484;2024-02-21T08:02:32;2.65;;;1.6;;
27907;SDS011;15249;48.092;11.484;2024-02-21T08:03:33;2.65;;;1.6;;
27907;SDS011;15249;48.092;11.484;2024-02-21T08:04:33;2.65;;;1.6;;
27907;SDS011;15249;48.092;11.484;2024-02-21T08:05:34;2.65;;;1.6;;
27907;SDS011;15249;48.092;11.484;2024-02-21T08:06:34;2.65;;;1.6;;
27907;SDS011;15249;48.092;11.484;2024-02-21T08:07:35;2.65;;;1.6;;
27907;SDS011;15249;48.092;11.484;2024-02-21T08:08:35;2.65;;;1.6;;
27907;SDS011;15249;48.092;11.484;2024-02-21T08:09:39;2.65;;;1.6;;
27907;SDS011;15249;48.092;11.484;2024-02-21T08:10:40;2.65;;;1.6;;
27907;SDS011;15249;48.092;11.484;2024-02-21T08:11:40;2.65;;;1.6;;
27907;SDS011;15249;48.092;11.484;2024-02-21T08:12:41;2.65;;;1.6;;
27907;SDS011;15249;48.092;11.484;2024-02-21T08:13:41;2.65;;;1.6;;
27907;SDS011;15249;48.092;11.484;2024-02-21T11:49:54;1.3;;;1.2;;
27907;SDS011;15249;48.092;11.484;2024-02-21T11:50:55;1.3;;;1.2;;
27907;SDS011;15249;48.092;11.484;2024-02-21T11:51:59;1.3;;;1.2;;
27907;SDS011;15249;48.092;11.484;2024-02-21T11:52:59;1.3;;;1.2;;
27907;SDS011;15249;48.092;11.484;2024-02-21T11:54:00;1.3;;;1.2;;
27907;SDS011;15249;48.092;11.484;2024-02-21T11:55:05;1.3;;;1.2;;
27907;SDS011;15249;48.092;11.484;2024-02-21T11:56:06;1.3;;;1.2;;
27907;SDS011;15249;48.092;11.484;2024-02-21T11:57:07;1.3;;;1.2;;
27907;SDS011;15249;48.092;11.484;2024-02-21T11:58:08;1.3;;;1.2;;
27907;SDS011;15249;48.092;11.484;2024-02-21T11:59:08;1.3;;;1.2;;
27907;SDS011;15249;48.092;11.484;2024-02-21T12:00:11;1.3;;;1.2;;
27907;SDS011;15249;48.092;11.484;2024-02-21T12:01:13;1.3;;;1.2;;
27907;SDS011;15249;48.092;11.484;2024-02-21T12:02:14;1.3;;;1.2;;
27907;SDS011;15249;48.092;11.484;2024-02-21T12:03:14;1.3;;;1.2;;
27907;SDS011;15249;48.092;11.484;2024-02-21T12:04:17;1.3;;;1.2;;
27907;SDS011;15249;48.092;11.484;2024-02-21T12:05:18;1.3;;;1.2;;
27907;SDS011;15249;48.092;11.484;2024-02-21T12:06:21;1.3;;;1.2;;
27907;SDS011;15249;48.092;11.484;2024-02-21T12:07:23;1.3;;;1.2;;
27907;SDS011;15249;48.092;11.484;2024-02-21T12:08:23;1.3;;;1.2;;
27907;SDS011;15249;48.092;11.484;2024-02-21T12:09:24;1.3;;;1.2;;
27907;SDS011;15249;48.092;11.484;2024-02-21T12:10:26;1.3;;;1.2;;
27907;SDS011;15249;48.092;11.484;2024-02-21T12:11:27;1.3;;;1.2;;
27907;SDS011;15249;48.092;11.484;2024-02-21T12:12:28;1.3;;;1.2;;
27907;SDS011;15249;48.092;11.484;2024-02-21T12:13:29;1.3;;;1.2;;
27907;SDS011;15249;48.092;11.484;2024-02-21T12:14:30;1.3;;;1.2;;
27907;SDS011;15249;48.092;11.484;2024-02-21T12:15:32;1.3;;;1.2;;
27907;SDS011;15249;48.092;11.484;2024-02-21T12:16:32;1.3;;;1.2;;
27907;SDS011;15249;48.092;11.484;2024-02-21T12:17:34;1.3;;;1.2;;
27907;SDS011;15249;48.092;11.484;2024-02-21T12:18:34;1.3;;;1.2;;
27907;SDS011;15249;48.092;11.484;2024-02-21T12:19:35;1.3;;;1.2;;
27907;SDS011;15249;48.092;11.484;2024-02-21T12:20:36;1.3;;;1.2;;
27907;SDS011;15249;48.092;11.484;2024-02-21T12:21:37;1.3;;;1.2;;
27907;SDS011;15249;48.092;11.484;2024-02-21T12:22:38;1.3;;;1.2;;
27907;SDS011;15249;48.092;11.484;2024-02-21T12:23:39;1.3;;;1.2;;
27907;SDS011;15249;48.092;11.484;2024-02-21T12:24:47;1.3;;;1.2;;
27907;SDS011;15249;48.092;11.484;2024-02-21T12:25:47;1.3;;;1.2;;
27907;SDS011;15249;48.092;11.484;2024-02-21T12:26:48;1.3;;;1.2;;
27907;SDS011;15249;48.092;11.484;2024-02-21T12:27:49;1.3;;;1.2;;
27907;SDS011;15249;48.092;11.484;2024-02-21T12:28:49;1.3;;;1.2;;
27907;SDS011;15249;48.092;11.484;2024-02-21T12:29:50;1.3;;;1.2;;
27907;SDS011;15249;48.092;11.484;2024-02-21T12:30:50;1.3;;;1.2;;
27907;SDS011;15249;48.092;11.484;2024-02-21T12:31:51;1.3;;;1.2;;
27907;SDS011;15249;48.092;11.484;2024-02-21T12:32:52;1.3;;;1.2;;
27907;SDS011;15249;48.092;11.484;2024-02-21T12:33:53;1.3;;;1.2;;
27907;SDS011;15249;48.092;11.484;2024-02-21T13:58:59;1.5;;;1.4;;
27907;SDS011;15249;48.092;11.484;2024-02-21T14:00:00;1.5;;;1.4;;
27907;SDS011;15249;48.092;11.484;2024-02-21T14:01:01;1.5;;;1.4;;
27907;SDS011;15249;48.092;11.484;2024-02-21T14:02:01;1.5;;;1.4;;
27907;SDS011;15249;48.092;11.484;2024-02-21T14:03:02;1.5;;;1.4;;
27907;SDS011;15249;48.092;11.484;2024-02-21T14:04:04;1.5;;;1.4;;
27907;SDS011;15249;48.092;11.484;2024-02-21T14:05:06;1.5;;;1.4;;
27907;SDS011;15249;48.092;11.484;2024-02-21T14:06:07;1.5;;;1.4;;
27907;SDS011;15249;48.092;11.484;2024-02-21T14:07:07;1.5;;;1.4;;
27907;SDS011;15249;48.092;11.484;2024-02-21T14:08:08;1.5;;;1.4;;
27907;SDS011;15249;48.092;11.484;2024-02-21T14:09:08;1.5;;;1.4;;
27907;SDS011;15249;48.092;11.484;2024-02-21T14:10:09;1.5;;;1.4;;
27907;SDS011;15249;48.092;11.484;2024-02-21T14:11:10;1.5;;;1.4;;
27907;SDS011;15249;48.092;11.484;2024-02-21T14:12:11;1.5;;;1.4;;
27907;SDS011;15249;48.092;11.484;2024-02-21T14:13:11;1.5;;;1.4;;
27907;SDS011;15249;48.092;11.484;2024-02-21T14:14:12;1.5;;;1.4;;
27907;SDS011;15249;48.092;11.484;2024-02-21T14:15:12;1.5;;;1.4;;
27907;SDS011;15249;48.092;11.484;2024-02-21T14:16:13;1.5;;;1.4;;
27907;SDS011;15249;48.092;11.484;2024-02-21T14:17:13;1.5;;;1.4;;
27907;SDS011;15249;48.092;11.484;2024-02-21T14:18:16;1.5;;;1.4;;
27907;SDS011;15249;48.092;11.484;2024-02-21T14:19:17;1.5;;;1.4;;
27907;SDS011;15249;48.092;11.484;2024-02-21T14:20:18;1.5;;;1.4;;
27907;SDS011;15249;48.092;11.484;2024-02-21T14:21:19;1.5;;;1.4;;
27907;SDS011;15249;48.092;11.484;2024-02-21T14:22:20;1.5;;;1.4;;
27907;SDS011;15249;48.092;11.484;2024-02-21T14:23:21;1.5;;;1.4;;
27907;SDS011;15249;48.092;11.484;2024-02-21T14:24:21;1.5;;;1.4;;
27907;SDS011;15249;48.092;11.484;2024-02-21T14:25:22;1.5;;;1.4;;
27907;SDS011;15249;48.092;11.484;2024-02-21T14:26:22;1.5;;;1.4;;
27907;SDS011;15249;48.092;11.484;2024-02-21T14:27:23;1.5;;;1.4;;
27907;SDS011;15249;48.092;11.484;2024-02-21T14:28:23;1.5;;;1.4;;
27907;SDS011;15249;48.092;11.484;2024-02-21T14:29:24;1.5;;;1.4;;
27907;SDS011;15249;48.092;11.484;2024-02-21T14:30:25;1.5;;;1.4;;
27907;SDS011;15249;48.092;11.484;2024-02-21T14:31:26;1.5;;;1.4;;
27907;SDS011;15249;48.092;11.484;2024-02-21T14:32:26;1.5;;;1.4;;
27907;SDS011;15249;48.092;11.484;2024-02-21T14:33:27;1.5;;;1.4;;
27907;SDS011;15249;48.092;11.484;2024-02-21T14:34:27;1.5;;;1.4;;
27907;SDS011;15249;48.092;11.484;2024-02-21T14:35:27;1.5;;;1.4;;
27907;SDS011;15249;48.092;11.484;2024-02-21T14:36:28;1.5;;;1.4;;
27907;SDS011;15249;48.092;11.484;2024-02-21T14:37:28;1.5;;;1.4;;
27907;SDS011;15249;48.092;11.484;2024-02-21T14:38:29;1.5;;;1.4;;
27907;SDS011;15249;48.092;11.484;2024-02-21T14:39:29;1.5;;;1.4;;
27907;SDS011;15249;48.092;11.484;2024-02-21T14:40:30;1.5;;;1.4;;
27907;SDS011;15249;48.092;11.484;2024-02-21T14:41:30;1.5;;;1.4;;
27907;SDS011;15249;48.092;11.484;2024-02-21T14:42:31;1.5;;;1.4;;
27907;SDS011;15249;48.092;11.484;2024-02-21T14:43:31;1.5;;;1.4;;
27907;SDS011;15249;48.092;11.484;2024-02-21T15:47:35;1.5;;;1.2;;
27907;SDS011;15249;48.092;11.484;2024-02-21T15:48:35;1.5;;;1.2;;
27907;SDS011;15249;48.092;11.484;2024-02-21T15:49:36;1.5;;;1.2;;
27907;SDS011;15249;48.092;11.484;2024-02-21T15:50:37;1.5;;;1.2;;
27907;SDS011;15249;48.092;11.484;2024-02-21T15:51:40;1.5;;;1.2;;
27907;SDS011;15249;48.092;11.484;2024-02-21T15:52:40;1.5;;;1.2;;
27907;SDS011;15249;48.092;11.484;2024-02-21T15:53:45;1.5;;;1.2;;
27907;SDS011;15249;48.092;11.484;2024-02-21T15:54:45;1.5;;;1.2;;
27907;SDS011;15249;48.092;11.484;2024-02-21T15:55:46;1.5;;;1.2;;
27907;SDS011;15249;48.092;11.484;2024-02-21T15:56:47;1.5;;;1.2;;
27907;SDS011;15249;48.092;11.484;2024-02-21T15:57:49;1.5;;;1.2;;
27907;SDS011;15249;48.092;11.484;2024-02-21T15:58:49;1.5;;;1.2;;
27907;SDS011;15249;48.092;11.484;2024-02-21T15:59:54;1.5;;;1.2;;
27907;SDS011;15249;48.092;11.484;2024-02-21T16:00:54;1.5;;;1.2;;
27907;SDS011;15249;48.092;11.484;2024-02-21T16:01:55;1.5;;;1.2;;
27907;SDS011;15249;48.092;11.484;2024-02-21T16:02:56;1.5;;;1.2;;
27907;SDS011;15249;48.092;11.484;2024-02-21T16:03:58;1.5;;;1.2;;
27907;SDS011;15249;48.092;11.484;2024-02-21T16:04:59;1.5;;;1.2;;
27907;SDS011;15249;48.092;11.484;2024-02-21T16:05:59;1.5;;;1.2;;
27907;SDS011;15249;48.092;11.484;2024-02-21T16:07:00;1.5;;;1.2;;
27907;SDS011;15249;48.092;11.484;2024-02-21T16:08:01;1.5;;;1.2;;
27907;SDS011;15249;48.092;11.484;2024-02-21T16:09:04;1.5;;;1.2;;